Time;durP1;ratioP1;P1;durP2;ratioP2;P2;SDS_P1;SDS_P2;PMS_P1;PMS_P2;Temp;Humidity;BMP_temperature;BMP_pressure;BME280_temperature;BME280_humidity;BME280_pressure;Samples;Min_cycle;Max_cycle;Signal;HPM_P1;HPM_P2
2023/03/12 00:00:54;;;;;;;;;;;;;;;;;;4948950;29;19933;-93
2023/03/12 00:03:20;;;;;;;;;;;;;;;;;;4951421;29;19927;-91
2023/03/12 00:05:50;;;;;;;;;;;;;;;;;;4958453;29;19923;-91
2023/03/12 00:08:22;;;;;;;;;;;;;;;;;;4962353;29;19926;-92
2023/03/12 00:10:48;;;;;;;;;;;;;;;;;;4961512;29;19979;-91
2023/03/12 00:13:19;;;;;;;;;;;;;;;;;;4977703;29;19985;-91
2023/03/12 00:16:08;;;;;;;;;;;;;;;;;;4962360;29;19982;-91
2023/03/12 00:18:34;;;;;;;;;;;;;;;;;;4977614;29;19922;-91
2023/03/12 00:21:01;;;;;;;;;;;;;;;;;;4961168;29;19927;-91
2023/03/12 00:23:28;;;;;;;;;;;;;;;;;;4972545;28;19957;-92
2023/03/12 00:25:54;;;;;;;;;;;;;;;;;;4948935;29;19953;-92
2023/03/12 00:28:20;;;;;;;;;;;;;;;;;;4948709;29;19922;-92
2023/03/12 00:30:46;;;;;;;;;;;;;;;;;;4949788;29;19945;-92
2023/03/12 00:33:12;;;;;;;;;;;;;;;;;;4950084;29;20400;-91
2023/03/12 00:35:38;;;;;;;;;;;;;;;;;;4950086;29;20343;-92
2023/03/12 00:38:04;;;;;;;;;;;;;;;;;;4959899;29;19926;-91
2023/03/12 00:40:33;;;;;;;;;;;;;;;;;;4976753;29;19933;-91
2023/03/12 00:42:59;;;;;;;;;;;;;;;;;;4960178;29;19933;-89
2023/03/12 00:45:28;;;;;;;;;;;;;;;;;;4956047;29;19923;-90
2023/03/12 00:47:54;;;;;;;;;;;;;;;;;;4993917;28;19922;-90
2023/03/12 00:50:20;;;;;;;;;;;;;;;;;;4949368;28;19929;-91
2023/03/12 00:52:46;;;;;;;;;;;;;;;;;;4954573;28;19949;-91
2023/03/12 00:55:15;;;;;;;;;;;;;;;;;;4952209;28;19973;-91
2023/03/12 00:57:41;;;;;;;;;;;;;;;;;;4948956;29;19922;-90
2023/03/12 01:00:10;;;;;;;;;;;;;;;;;;4949439;29;19933;-90
2023/03/12 01:02:36;;;;;;;;;;;;;;;;;;4956701;29;19927;-92
2023/03/12 01:05:09;;;;;;;;;;;;;;;;;;4977664;28;19930;-91
2023/03/12 01:07:36;;;;;;;;;;;;;;;;;;4973950;28;19945;-92
2023/03/12 01:10:05;;;;;;;;;;;;;;;;;;4977749;28;19923;-91
2023/03/12 01:12:32;;;;;;;;;;;;;;;;;;4980009;28;19925;-92
2023/03/12 01:15:01;;;;;;;;;;;;;;;;;;4968330;29;19973;-91
2023/03/12 01:17:27;;;;;;;;;;;;;;;;;;4953781;28;19922;-90
2023/03/12 01:19:53;;;;;;;;;;;;;;;;;;4963064;28;19934;-91
2023/03/12 01:22:25;;;;;;;;;;;;;;;;;;4950469;29;20292;-91
2023/03/12 01:24:51;;;;;;;;;;;;;;;;;;4949592;29;19923;-89
2023/03/12 01:27:17;;;;;;;;;;;;;;;;;;4950116;29;19973;-90
2023/03/12 01:29:43;;;;;;;;;;;;;;;;;;4957971;29;19945;-90
2023/03/12 01:32:09;;;;;;;;;;;;;;;;;;4952785;29;19929;-90
2023/03/12 01:34:35;;;;;;;;;;;;;;;;;;4950403;29;19926;-91
2023/03/12 01:37:01;;;;;;;;;;;;;;;;;;4951352;29;19922;-91
2023/03/12 01:39:27;;;;;;;;;;;;;;;;;;4949297;29;19923;-90
2023/03/12 01:42:04;;;;;;;;;;;;;;;;;;4956315;29;19946;-91
2023/03/12 01:44:34;;;;;;;;;;;;;;;;;;4953704;29;19922;-91
2023/03/12 01:47:00;;;;;;;;;;;;;;;;;;4950715;29;20034;-90
2023/03/12 01:49:26;;;;;;;;;;;;;;;;;;4966339;29;20021;-91
2023/03/12 01:51:52;;;;;;;;;;;;;;;;;;4950760;29;19918;-91
2023/03/12 01:54:18;;;;;;;;;;;;;;;;;;4950308;29;20102;-92
2023/03/12 01:56:43;;;;;;;;;;;;;;;;;;4953590;29;19922;-92
2023/03/12 01:59:11;;;;;;;;;;;;;;;;;;4954864;29;19922;-92
2023/03/12 02:01:40;;;;;;;;;;;;;;;;;;4963287;28;19910;-92
2023/03/12 02:04:06;;;;;;;;;;;;;;;;;;4962475;29;19977;-91
2023/03/12 02:06:34;;;;;;;;;;;;;;;;;;4960351;29;19907;-93
2023/03/12 02:09:04;;;;;;;;;;;;;;;;;;4979368;29;19930;-92
2023/03/12 02:11:34;;;;;;;;;;;;;;;;;;4976278;29;20403;-90
2023/03/12 02:14:00;;;;;;;;;;;;;;;;;;4953969;29;19923;-91
2023/03/12 02:16:26;;;;;;;;;;;;;;;;;;4953551;29;19926;-91
2023/03/12 02:18:51;;;;;;;;;;;;;;;;;;4958784;29;19988;-91
2023/03/12 02:21:17;;;;;;;;;;;;;;;;;;4953134;29;19927;-92
2023/03/12 02:23:43;;;;;;;;;;;;;;;;;;5049373;23;19926;-92
2023/03/12 02:26:09;;;;;;;;;;;;;;;;;;4989285;28;19937;-93
2023/03/12 02:28:41;;;;;;;;;;;;;;;;;;4985446;28;19945;-92
2023/03/12 02:31:11;;;;;;;;;;;;;;;;;;4997223;28;19926;-92
2023/03/12 02:33:37;;;;;;;;;;;;;;;;;;5014081;28;19922;-92
2023/03/12 02:36:03;;;;;;;;;;;;;;;;;;4993377;28;20445;-93
2023/03/12 02:38:29;;;;;;;;;;;;;;;;;;4983163;28;20297;-92
2023/03/12 02:40:55;;;;;;;;;;;;;;;;;;4988173;28;19930;-92
2023/03/12 02:43:21;;;;;;;;;;;;;;;;;;4992603;28;19921;-92
2023/03/12 02:45:47;;;;;;;;;;;;;;;;;;4987097;28;19922;-92
2023/03/12 02:48:13;;;;;;;;;;;;;;;;;;5001459;28;19922;-91
2023/03/12 02:50:39;;;;;;;;;;;;;;;;;;4992103;28;19922;-91
2023/03/12 02:53:05;;;;;;;;;;;;;;;;;;5002499;28;19930;-93
2023/03/12 02:55:31;;;;;;;;;;;;;;;;;;4993030;28;19977;-92
2023/03/12 02:57:57;;;;;;;;;;;;;;;;;;4990838;28;19973;-92
2023/03/12 03:00:31;;;;;;;;;;;;;;;;;;4998401;28;19917;-92
2023/03/12 03:02:57;;;;;;;;;;;;;;;;;;4994335;28;19922;-91
2023/03/12 03:05:22;;;;;;;;;;;;;;;;;;4990461;28;20359;-91
2023/03/12 03:07:48;;;;;;;;;;;;;;;;;;4991418;28;19987;-91
2023/03/12 03:10:16;;;;;;;;;;;;;;;;;;4991613;28;19926;-91
2023/03/12 03:12:42;;;;;;;;;;;;;;;;;;4995731;28;20020;-91
2023/03/12 03:15:08;;;;;;;;;;;;;;;;;;4991146;28;19925;-91
2023/03/12 03:17:34;;;;;;;;;;;;;;;;;;4992646;28;19925;-91
2023/03/12 03:20:07;;;;;;;;;;;;;;;;;;4993133;28;19949;-92
2023/03/12 03:22:33;;;;;;;;;;;;;;;;;;4989977;28;19928;-92
2023/03/12 03:24:59;;;;;;;;;;;;;;;;;;5009908;28;20033;-91
2023/03/12 03:27:25;;;;;;;;;;;;;;;;;;5005069;28;19922;-92
2023/03/12 03:29:51;;;;;;;;;;;;;;;;;;5009101;28;19922;-92
2023/03/12 03:32:17;;;;;;;;;;;;;;;;;;5011078;28;19976;-92
2023/03/12 03:34:43;;;;;;;;;;;;;;;;;;4992651;28;19928;-92
2023/03/12 03:37:10;;;;;;;;;;;;;;;;;;5015544;28;20004;-90
2023/03/12 03:39:36;;;;;;;;;;;;;;;;;;4991040;28;19928;-91
2023/03/12 03:42:02;;;;;;;;;;;;;;;;;;4991767;28;19929;-91
2023/03/12 03:44:29;;;;;;;;;;;;;;;;;;4990902;28;19921;-91
2023/03/12 03:46:55;;;;;;;;;;;;;;;;;;4982612;28;19946;-91
2023/03/12 03:49:22;;;;;;;;;;;;;;;;;;4988278;28;19922;-91
2023/03/12 03:51:50;;;;;;;;;;;;;;;;;;4990841;28;19926;-91
2023/03/12 03:54:16;;;;;;;;;;;;;;;;;;4971874;28;19922;-90
2023/03/12 03:56:42;;;;;;;;;;;;;;;;;;4970657;28;19929;-90
2023/03/12 03:59:08;;;;;;;;;;;;;;;;;;4970639;28;20506;-92
2023/03/12 04:01:35;;;;;;;;;;;;;;;;;;4971913;28;19937;-91
2023/03/12 04:04:01;;;;;;;;;;;;;;;;;;4971656;28;19922;-91
2023/03/12 04:06:30;;;;;;;;;;;;;;;;;;4975922;28;19906;-91
2023/03/12 04:11:32;;;;;;;;;;;;;;;;;;5049068;23;19933;-93
2023/03/12 04:14:07;;;;;;;;;;;;;;;;;;4997502;28;19974;-91
2023/03/12 04:16:36;;;;;;;;;;;;;;;;;;4980190;28;19938;-92
2023/03/12 04:19:03;;;;;;;;;;;;;;;;;;4973158;28;19926;-91
2023/03/12 04:21:29;;;;;;;;;;;;;;;;;;4971065;28;19977;-92
2023/03/12 04:23:55;;;;;;;;;;;;;;;;;;4971242;28;19925;-92
2023/03/12 04:26:21;;;;;;;;;;;;;;;;;;4971904;28;19922;-92
2023/03/12 04:28:47;;;;;;;;;;;;;;;;;;4972123;28;19929;-92
2023/03/12 04:31:19;;;;;;;;;;;;;;;;;;4976250;28;19906;-93
2023/03/12 04:33:49;;;;;;;;;;;;;;;;;;4987553;28;19926;-91
2023/03/12 04:36:15;;;;;;;;;;;;;;;;;;4979616;28;19958;-91
2023/03/12 04:38:42;;;;;;;;;;;;;;;;;;4981575;28;20009;-92
2023/03/12 04:41:08;;;;;;;;;;;;;;;;;;4979069;28;19926;-91
2023/03/12 04:43:34;;;;;;;;;;;;;;;;;;4974997;28;19928;-90
2023/03/12 04:46:00;;;;;;;;;;;;;;;;;;4970494;28;20487;-90
2023/03/12 04:48:26;;;;;;;;;;;;;;;;;;4970629;28;19933;-91
2023/03/12 04:50:52;;;;;;;;;;;;;;;;;;4970650;28;19922;-91
2023/03/12 04:53:17;;;;;;;;;;;;;;;;;;4962026;28;19922;-91
2023/03/12 04:55:47;;;;;;;;;;;;;;;;;;4950388;29;19922;-92
2023/03/12 04:58:13;;;;;;;;;;;;;;;;;;4952661;29;19950;-90
2023/03/12 05:00:39;;;;;;;;;;;;;;;;;;4954245;29;19926;-91
2023/03/12 05:03:05;;;;;;;;;;;;;;;;;;4961505;28;19926;-89
2023/03/12 05:05:31;;;;;;;;;;;;;;;;;;4971741;28;19945;-91
2023/03/12 05:07:56;;;;;;;;;;;;;;;;;;4963935;28;19922;-91
2023/03/12 05:10:22;;;;;;;;;;;;;;;;;;4953995;28;19926;-91
2023/03/12 05:12:48;;;;;;;;;;;;;;;;;;4952403;29;19922;-91
2023/03/12 05:15:20;;;;;;;;;;;;;;;;;;4957046;29;19962;-91
2023/03/12 05:17:46;;;;;;;;;;;;;;;;;;4961954;29;19928;-92
2023/03/12 05:20:20;;;;;;;;;;;;;;;;;;4975302;28;19933;-90
2023/03/12 05:22:56;;;;;;;;;;;;;;;;;;4962411;29;19926;-91
2023/03/12 05:25:22;;;;;;;;;;;;;;;;;;4954630;29;19913;-92
2023/03/12 05:27:48;;;;;;;;;;;;;;;;;;4961135;29;19926;-91
2023/03/12 05:30:17;;;;;;;;;;;;;;;;;;5004758;28;19990;-91
2023/03/12 05:33:04;;;;;;;;;;;;;;;;;;4978170;29;19929;-93
2023/03/12 05:43:33;;;;;;;;;;;;;;;;;;5487260;23;19926;-90
2023/03/12 05:45:59;;;;;;;;;;;;;;;;;;4952997;29;19965;-91
2023/03/12 05:48:25;;;;;;;;;;;;;;;;;;4953665;29;19969;-91
2023/03/12 05:50:51;;;;;;;;;;;;;;;;;;4967831;29;19969;-92
2023/03/12 05:53:23;;;;;;;;;;;;;;;;;;4957363;28;19926;-91
2023/03/12 05:55:49;;;;;;;;;;;;;;;;;;4944509;29;19923;-92
2023/03/12 05:58:16;;;;;;;;;;;;;;;;;;4939058;29;19923;-92
2023/03/12 06:00:43;;;;;;;;;;;;;;;;;;4949657;29;19930;-92
2023/03/12 06:03:09;;;;;;;;;;;;;;;;;;4945492;29;19907;-92
2023/03/12 06:05:34;;;;;;;;;;;;;;;;;;4957333;29;19964;-92
2023/03/12 06:08:00;;;;;;;;;;;;;;;;;;5009360;23;19926;-91
2023/03/12 06:10:26;;;;;;;;;;;;;;;;;;4975527;28;19961;-92
2023/03/12 06:15:30;;;;;;;;;;;;;;;;;;5387432;23;19911;-91
2023/03/12 06:17:57;;;;;;;;;;;;;;;;;;4979543;28;20024;-92
2023/03/12 06:20:27;;;;;;;;;;;;;;;;;;4977208;28;19922;-92
2023/03/12 06:23:04;;;;;;;;;;;;;;;;;;5551155;23;19949;-91
2023/03/12 06:25:33;;;;;;;;;;;;;;;;;;5346638;23;19926;-92
2023/03/12 06:30:35;;;;;;;;;;;;;;;;;;5065628;23;19910;-90
2023/03/12 06:33:13;;;;;;;;;;;;;;;;;;4994144;28;19965;-91
2023/03/12 06:35:56;;;;;;;;;;;;;;;;;;5054085;23;20351;-91
2023/03/12 06:40:57;;;;;;;;;;;;;;;;;;5161276;23;19963;-92
2023/03/12 06:43:23;;;;;;;;;;;;;;;;;;4976922;28;19933;-93
2023/03/12 06:45:49;;;;;;;;;;;;;;;;;;4976463;28;19929;-92
2023/03/12 06:48:15;;;;;;;;;;;;;;;;;;4976902;28;19922;-92
2023/03/12 06:50:41;;;;;;;;;;;;;;;;;;4992185;28;19921;-93
2023/03/12 06:53:07;;;;;;;;;;;;;;;;;;4975721;28;19973;-92
2023/03/12 06:55:33;;;;;;;;;;;;;;;;;;4992961;28;20311;-92
2023/03/12 06:57:59;;;;;;;;;;;;;;;;;;4978301;28;19933;-93
2023/03/12 07:00:26;;;;;;;;;;;;;;;;;;4999190;28;19981;-91
2023/03/12 07:02:56;;;;;;;;;;;;;;;;;;4992376;28;20392;-92
2023/03/12 07:05:22;;;;;;;;;;;;;;;;;;5147117;23;19933;-91
2023/03/12 07:07:47;;;;;;;;;;;;;;;;;;4970082;29;19923;-92
2023/03/12 07:10:13;;;;;;;;;;;;;;;;;;4956278;29;20013;-91
2023/03/12 07:12:39;;;;;;;;;;;;;;;;;;4957062;29;19923;-92
2023/03/12 07:15:05;;;;;;;;;;;;;;;;;;4956391;29;19922;-92
2023/03/12 07:17:31;;;;;;;;;;;;;;;;;;4956130;29;19931;-92
2023/03/12 07:19:57;;;;;;;;;;;;;;;;;;4983603;28;19923;-92
2023/03/12 07:22:23;;;;;;;;;;;;;;;;;;4935538;29;19923;-91
2023/03/12 07:24:50;;;;;;;;;;;;;;;;;;4936290;29;19911;-92
2023/03/12 07:27:16;;;;;;;;;;;;;;;;;;4936792;29;20258;-92
2023/03/12 07:29:42;;;;;;;;;;;;;;;;;;4936471;29;19973;-92
2023/03/12 07:32:11;;;;;;;;;;;;;;;;;;4938882;29;20178;-91
2023/03/12 07:34:43;;;;;;;;;;;;;;;;;;5037757;23;19936;-92
2023/03/12 07:37:09;;;;;;;;;;;;;;;;;;4978166;28;19922;-92
2023/03/12 07:39:35;;;;;;;;;;;;;;;;;;4979945;28;19961;-92
2023/03/12 07:42:03;;;;;;;;;;;;;;;;;;4993824;28;19981;-91
2023/03/12 07:44:30;;;;;;;;;;;;;;;;;;4981567;28;20371;-92
2023/03/12 07:46:56;;;;;;;;;;;;;;;;;;4995713;28;19910;-92
2023/03/12 07:49:22;;;;;;;;;;;;;;;;;;4977724;28;19982;-93
2023/03/12 07:51:48;;;;;;;;;;;;;;;;;;4977385;28;19922;-92
2023/03/12 07:54:14;;;;;;;;;;;;;;;;;;4972210;28;19922;-92
2023/03/12 07:56:40;;;;;;;;;;;;;;;;;;4970689;28;19928;-92
2023/03/12 07:59:06;;;;;;;;;;;;;;;;;;4970718;28;20339;-92
2023/03/12 08:01:32;;;;;;;;;;;;;;;;;;4970564;28;20327;-93
2023/03/12 08:03:58;;;;;;;;;;;;;;;;;;4972380;28;19929;-93
2023/03/12 08:06:24;;;;;;;;;;;;;;;;;;4973585;28;19922;-92
2023/03/12 08:08:50;;;;;;;;;;;;;;;;;;4967280;28;19973;-93
2023/03/12 08:11:16;;;;;;;;;;;;;;;;;;4967628;28;19938;-91
2023/03/12 08:13:42;;;;;;;;;;;;;;;;;;4978230;28;19930;-93
2023/03/12 08:16:08;;;;;;;;;;;;;;;;;;4976788;28;20372;-93
2023/03/12 08:18:34;;;;;;;;;;;;;;;;;;4978779;28;19926;-92
2023/03/12 08:21:00;;;;;;;;;;;;;;;;;;4976529;28;19934;-92
2023/03/12 08:23:26;;;;;;;;;;;;;;;;;;4989820;28;19926;-92
2023/03/12 08:25:52;;;;;;;;;;;;;;;;;;4974652;28;19922;-92
2023/03/12 08:28:18;;;;;;;;;;;;;;;;;;4973995;28;19929;-93
2023/03/12 08:30:44;;;;;;;;;;;;;;;;;;4958883;28;19933;-93
2023/03/12 08:33:10;;;;;;;;;;;;;;;;;;4970601;28;19922;-92
2023/03/12 08:35:36;;;;;;;;;;;;;;;;;;4973474;28;19981;-92
2023/03/12 08:38:05;;;;;;;;;;;;;;;;;;4957336;28;19923;-93
2023/03/12 08:40:30;;;;;;;;;;;;;;;;;;4970080;28;19926;-94
2023/03/12 08:42:56;;;;;;;;;;;;;;;;;;4974479;28;19937;-95
2023/03/12 08:45:22;;;;;;;;;;;;;;;;;;4978249;28;19965;-94
2023/03/12 08:47:49;;;;;;;;;;;;;;;;;;4982742;28;19933;-94
2023/03/12 09:11:01;;;;;;;;;;;;;;;;;;4976359;28;19961;-93
2023/03/12 09:13:28;;;;;;;;;;;;;;;;;;4957021;28;19918;-92
2023/03/12 09:15:57;;;;;;;;;;;;;;;;;;4963198;28;19922;-93
2023/03/12 09:18:24;;;;;;;;;;;;;;;;;;4959619;28;19910;-93
2023/03/12 09:20:54;;;;;;;;;;;;;;;;;;4984860;28;19951;-95
2023/03/12 09:23:20;;;;;;;;;;;;;;;;;;4962601;28;19923;-95
2023/03/12 09:26:05;;;;;;;;;;;;;;;;;;4969520;28;19911;-96
2023/03/12 09:28:32;;;;;;;;;;;;;;;;;;4963512;28;19914;-91
2023/03/12 09:31:03;;;;;;;;;;;;;;;;;;4985271;28;19958;-93
2023/03/12 09:33:29;;;;;;;;;;;;;;;;;;4968387;28;19937;-93
2023/03/12 09:35:59;;;;;;;;;;;;;;;;;;4973440;28;19931;-94
2023/03/12 09:41:13;;;;;;;;;;;;;;;;;;4997129;28;19926;-90
2023/03/12 09:43:39;;;;;;;;;;;;;;;;;;4955063;29;19934;-94
2023/03/12 09:46:08;;;;;;;;;;;;;;;;;;4947136;29;19923;-95
2023/03/12 09:48:39;;;;;;;;;;;;;;;;;;4960331;29;19931;-94
2023/03/12 09:51:05;;;;;;;;;;;;;;;;;;4962866;29;19931;-93
2023/03/12 09:53:35;;;;;;;;;;;;;;;;;;4975517;28;20364;-93
2023/03/12 09:56:12;;;;;;;;;;;;;;;;;;4943460;29;19934;-93
2023/03/12 09:58:47;;;;;;;;;;;;;;;;;;4960543;29;19910;-94
2023/03/12 10:01:13;;;;;;;;;;;;;;;;;;4950326;29;19931;-95
2023/03/12 10:03:39;;;;;;;;;;;;;;;;;;4938903;29;20376;-95
2023/03/12 10:06:05;;;;;;;;;;;;;;;;;;4939010;29;20358;-94
2023/03/12 10:08:35;;;;;;;;;;;;;;;;;;4938856;29;19922;-94
2023/03/12 10:11:01;;;;;;;;;;;;;;;;;;4938483;29;20009;-94
2023/03/12 10:13:27;;;;;;;;;;;;;;;;;;4938780;29;19985;-94
2023/03/12 10:15:53;;;;;;;;;;;;;;;;;;4940934;29;19926;-95
2023/03/12 10:18:19;;;;;;;;;;;;;;;;;;4958410;29;19927;-94
2023/03/12 10:20:45;;;;;;;;;;;;;;;;;;4938185;29;19927;-96
2023/03/12 10:23:11;;;;;;;;;;;;;;;;;;4940022;29;19922;-95
2023/03/12 10:25:36;;;;;;;;;;;;;;;;;;4934362;29;19922;-86
2023/03/12 10:28:07;;;;;;;;;;;;;;;;;;4940096;29;19931;-93
2023/03/12 10:30:35;;;;;;;;;;;;;;;;;;4941835;29;19922;-94
2023/03/12 10:33:08;;;;;;;;;;;;;;;;;;4942311;29;19922;-94
2023/03/12 10:35:35;;;;;;;;;;;;;;;;;;4958206;29;19970;-94
2023/03/12 10:38:01;;;;;;;;;;;;;;;;;;4934005;29;19937;-94
2023/03/12 10:40:27;;;;;;;;;;;;;;;;;;4941465;29;19927;-94
2023/03/12 10:43:00;;;;;;;;;;;;;;;;;;4930330;29;19978;-95
2023/03/12 10:45:26;;;;;;;;;;;;;;;;;;4941962;29;20333;-95
2023/03/12 10:47:55;;;;;;;;;;;;;;;;;;4932323;29;20003;-95
2023/03/12 10:50:21;;;;;;;;;;;;;;;;;;4941353;29;20013;-94
2023/03/12 10:52:51;;;;;;;;;;;;;;;;;;4935073;29;19996;-94
2023/03/12 10:55:16;;;;;;;;;;;;;;;;;;4941513;29;19927;-94
2023/03/12 10:57:42;;;;;;;;;;;;;;;;;;4941079;29;19929;-94
2023/03/12 11:00:11;;;;;;;;;;;;;;;;;;4941018;29;20420;-94
2023/03/12 11:02:37;;;;;;;;;;;;;;;;;;4941060;29;19928;-94
2023/03/12 11:05:02;;;;;;;;;;;;;;;;;;4941426;29;19906;-95
2023/03/12 11:07:28;;;;;;;;;;;;;;;;;;4937152;29;19933;-94
2023/03/12 11:09:54;;;;;;;;;;;;;;;;;;4936704;29;19922;-94
2023/03/12 11:12:20;;;;;;;;;;;;;;;;;;4940354;29;19930;-94
2023/03/12 11:14:46;;;;;;;;;;;;;;;;;;4939850;29;19922;-94
2023/03/12 11:17:12;;;;;;;;;;;;;;;;;;4937985;29;20022;-95
2023/03/12 11:19:39;;;;;;;;;;;;;;;;;;4922013;29;19962;-94
2023/03/12 11:22:06;;;;;;;;;;;;;;;;;;4937211;29;19966;-95
2023/03/12 11:24:31;;;;;;;;;;;;;;;;;;4922019;29;19922;-94
2023/03/12 11:26:57;;;;;;;;;;;;;;;;;;4937503;29;19923;-94
2023/03/12 11:29:23;;;;;;;;;;;;;;;;;;4921503;29;19923;-94
2023/03/12 11:31:49;;;;;;;;;;;;;;;;;;4931503;29;19981;-94
2023/03/12 11:34:15;;;;;;;;;;;;;;;;;;4955376;29;19922;-95
2023/03/12 11:36:41;;;;;;;;;;;;;;;;;;4937560;29;19922;-94
2023/03/12 11:39:07;;;;;;;;;;;;;;;;;;4921300;29;20307;-94
2023/03/12 11:41:33;;;;;;;;;;;;;;;;;;4921552;29;19927;-95
2023/03/12 11:43:59;;;;;;;;;;;;;;;;;;4929255;29;20021;-94
2023/03/12 11:46:24;;;;;;;;;;;;;;;;;;4921487;29;20571;-94
2023/03/12 11:48:50;;;;;;;;;;;;;;;;;;4927695;29;19922;-94
2023/03/12 11:51:16;;;;;;;;;;;;;;;;;;4922116;29;19923;-95
2023/03/12 11:53:42;;;;;;;;;;;;;;;;;;4921665;29;20290;-95
2023/03/12 11:56:08;;;;;;;;;;;;;;;;;;4925780;29;19976;-93
2023/03/12 11:58:34;;;;;;;;;;;;;;;;;;4940075;29;20285;-93
2023/03/12 12:01:00;;;;;;;;;;;;;;;;;;4939856;29;19994;-93
2023/03/12 12:03:26;;;;;;;;;;;;;;;;;;4940284;29;19961;-94
2023/03/12 12:05:52;;;;;;;;;;;;;;;;;;4940214;29;19922;-94
2023/03/12 12:08:17;;;;;;;;;;;;;;;;;;4939977;29;20029;-94
2023/03/12 12:10:43;;;;;;;;;;;;;;;;;;4930007;29;19923;-93
2023/03/12 12:13:09;;;;;;;;;;;;;;;;;;4929832;29;19937;-93
2023/03/12 12:15:36;;;;;;;;;;;;;;;;;;4955916;29;19926;-94
2023/03/12 12:18:02;;;;;;;;;;;;;;;;;;4928221;29;19929;-95
2023/03/12 12:20:28;;;;;;;;;;;;;;;;;;4937504;29;20013;-94
2023/03/12 12:22:54;;;;;;;;;;;;;;;;;;4928915;29;19970;-93
2023/03/12 12:25:19;;;;;;;;;;;;;;;;;;4926954;29;19942;-93
2023/03/12 12:27:45;;;;;;;;;;;;;;;;;;4937602;29;20339;-94
2023/03/12 12:30:11;;;;;;;;;;;;;;;;;;4932000;29;19933;-93
2023/03/12 12:32:37;;;;;;;;;;;;;;;;;;4938891;29;19966;-93
2023/03/12 12:35:03;;;;;;;;;;;;;;;;;;4939481;29;19922;-92
2023/03/12 12:37:29;;;;;;;;;;;;;;;;;;4955082;28;20435;-93
2023/03/12 12:39:55;;;;;;;;;;;;;;;;;;4939445;29;19934;-93
2023/03/12 12:42:21;;;;;;;;;;;;;;;;;;4927848;29;19937;-93
2023/03/12 12:44:47;;;;;;;;;;;;;;;;;;4935402;29;19922;-93
2023/03/12 12:47:16;;;;;;;;;;;;;;;;;;4933797;29;19933;-93
2023/03/12 12:52:27;;;;;;;;;;;;;;;;;;4950008;29;19931;-93
2023/03/12 12:55:02;;;;;;;;;;;;;;;;;;4939355;29;19929;-94
2023/03/12 12:57:28;;;;;;;;;;;;;;;;;;4955255;29;19929;-93
2023/03/12 12:59:54;;;;;;;;;;;;;;;;;;4938614;29;20009;-92
2023/03/12 13:02:20;;;;;;;;;;;;;;;;;;4939222;29;20479;-94
2023/03/12 13:04:46;;;;;;;;;;;;;;;;;;4934832;29;19926;-94
2023/03/12 13:07:12;;;;;;;;;;;;;;;;;;4927589;29;19974;-94
2023/03/12 13:09:38;;;;;;;;;;;;;;;;;;4933429;29;19922;-94
2023/03/12 13:12:04;;;;;;;;;;;;;;;;;;4935832;29;19930;-94
2023/03/12 13:14:30;;;;;;;;;;;;;;;;;;4936025;29;19911;-94
2023/03/12 13:16:56;;;;;;;;;;;;;;;;;;4919443;29;19929;-93
2023/03/12 13:19:22;;;;;;;;;;;;;;;;;;4925871;29;19934;-92
2023/03/12 13:21:48;;;;;;;;;;;;;;;;;;4954489;29;19934;-94
2023/03/12 13:24:14;;;;;;;;;;;;;;;;;;4953068;29;20403;-93
2023/03/12 13:26:41;;;;;;;;;;;;;;;;;;4938254;29;23240;-95
2023/03/12 13:29:07;;;;;;;;;;;;;;;;;;4934691;29;19923;-94
2023/03/12 13:31:33;;;;;;;;;;;;;;;;;;4930886;29;19927;-94
2023/03/12 13:33:59;;;;;;;;;;;;;;;;;;4939628;29;19977;-94
2023/03/12 13:36:25;;;;;;;;;;;;;;;;;;4939406;29;19923;-95
2023/03/12 13:38:52;;;;;;;;;;;;;;;;;;4939174;29;19934;-93
2023/03/12 13:41:18;;;;;;;;;;;;;;;;;;4938739;29;19927;-95
2023/03/12 13:43:44;;;;;;;;;;;;;;;;;;4939264;29;19922;-95
2023/03/12 13:46:09;;;;;;;;;;;;;;;;;;4939267;29;19930;-95
2023/03/12 13:48:35;;;;;;;;;;;;;;;;;;4939128;28;19922;-94
2023/03/12 13:51:01;;;;;;;;;;;;;;;;;;4942571;29;19923;-94
2023/03/12 13:53:27;;;;;;;;;;;;;;;;;;4938777;29;19978;-92
2023/03/12 13:55:53;;;;;;;;;;;;;;;;;;4927685;29;19966;-94
2023/03/12 13:58:20;;;;;;;;;;;;;;;;;;4923885;29;19934;-94
2023/03/12 14:00:46;;;;;;;;;;;;;;;;;;4939085;29;19926;-94
2023/03/12 14:03:12;;;;;;;;;;;;;;;;;;4942175;29;20443;-92
2023/03/12 14:05:38;;;;;;;;;;;;;;;;;;4942756;29;19922;-95
2023/03/12 14:08:04;;;;;;;;;;;;;;;;;;4934677;29;19930;-93
2023/03/12 14:10:30;;;;;;;;;;;;;;;;;;4941953;29;19981;-93
2023/03/12 14:12:55;;;;;;;;;;;;;;;;;;4942629;29;20355;-93
2023/03/12 14:15:21;;;;;;;;;;;;;;;;;;4942211;29;20024;-93
2023/03/12 14:17:47;;;;;;;;;;;;;;;;;;4955710;29;19923;-93
2023/03/12 14:20:13;;;;;;;;;;;;;;;;;;4937221;29;19933;-93
2023/03/12 14:22:39;;;;;;;;;;;;;;;;;;4942364;29;19926;-93
2023/03/12 14:25:05;;;;;;;;;;;;;;;;;;4958591;29;19974;-93
2023/03/12 14:27:31;;;;;;;;;;;;;;;;;;4925855;29;19922;-93
2023/03/12 14:29:57;;;;;;;;;;;;;;;;;;4942213;29;19972;-93
2023/03/12 14:32:23;;;;;;;;;;;;;;;;;;4941858;29;19922;-93
2023/03/12 14:34:49;;;;;;;;;;;;;;;;;;4942080;29;19927;-93
2023/03/12 14:37:15;;;;;;;;;;;;;;;;;;4942115;29;19994;-92
2023/03/12 14:39:41;;;;;;;;;;;;;;;;;;4940423;29;19929;-93
2023/03/12 14:42:07;;;;;;;;;;;;;;;;;;4935477;29;19946;-92
2023/03/12 14:44:33;;;;;;;;;;;;;;;;;;4923292;29;19958;-92
2023/03/12 14:46:59;;;;;;;;;;;;;;;;;;4931552;29;19992;-92
2023/03/12 14:49:24;;;;;;;;;;;;;;;;;;4941697;29;19929;-92
2023/03/12 14:51:50;;;;;;;;;;;;;;;;;;4926278;29;19922;-92
2023/03/12 14:54:17;;;;;;;;;;;;;;;;;;4923065;29;19966;-91
2023/03/12 14:56:42;;;;;;;;;;;;;;;;;;4938971;29;19923;-93
2023/03/12 14:59:08;;;;;;;;;;;;;;;;;;4922555;29;20333;-92
2023/03/12 15:01:38;;;;;;;;;;;;;;;;;;4921798;29;19927;-90
2023/03/12 15:04:04;;;;;;;;;;;;;;;;;;4921964;29;19923;-89
2023/03/12 15:06:30;;;;;;;;;;;;;;;;;;4926243;29;19923;-89
2023/03/12 15:08:56;;;;;;;;;;;;;;;;;;4940099;29;20384;-90
2023/03/12 15:11:21;;;;;;;;;;;;;;;;;;4941293;29;20331;-91
2023/03/12 15:13:47;;;;;;;;;;;;;;;;;;4941430;29;19972;-89
2023/03/12 15:16:13;;;;;;;;;;;;;;;;;;4938709;29;19974;-89
2023/03/12 15:18:39;;;;;;;;;;;;;;;;;;4924324;29;19982;-91
2023/03/12 15:21:06;;;;;;;;;;;;;;;;;;4940814;29;19930;-91
2023/03/12 15:23:32;;;;;;;;;;;;;;;;;;4940779;29;19922;-92
2023/03/12 15:25:58;;;;;;;;;;;;;;;;;;4939871;29;19929;-91
2023/03/12 15:28:24;;;;;;;;;;;;;;;;;;4938244;29;20281;-89
2023/03/12 15:30:50;;;;;;;;;;;;;;;;;;4938932;28;19926;-88
2023/03/12 15:33:16;;;;;;;;;;;;;;;;;;4957370;28;19969;-89
2023/03/12 15:35:42;;;;;;;;;;;;;;;;;;4954289;29;20021;-89
2023/03/12 15:38:08;;;;;;;;;;;;;;;;;;4949584;29;19922;-89
2023/03/12 15:40:35;;;;;;;;;;;;;;;;;;4939206;29;19977;-88
2023/03/12 15:43:02;;;;;;;;;;;;;;;;;;4940002;29;20690;-89
2023/03/12 15:48:31;;;;;;;;;;;;;;;;;;4940099;29;20028;-89
2023/03/12 15:50:57;;;;;;;;;;;;;;;;;;4939011;29;20470;-89
2023/03/12 15:53:24;;;;;;;;;;;;;;;;;;4939336;29;20025;-90
2023/03/12 15:55:50;;;;;;;;;;;;;;;;;;4935129;29;19922;-89
2023/03/12 15:58:16;;;;;;;;;;;;;;;;;;4939197;29;19977;-88
2023/03/12 16:00:42;;;;;;;;;;;;;;;;;;4938718;29;20285;-89
2023/03/12 16:03:09;;;;;;;;;;;;;;;;;;4938989;29;19922;-89
2023/03/12 16:05:34;;;;;;;;;;;;;;;;;;4939042;29;19922;-89
2023/03/12 16:08:00;;;;;;;;;;;;;;;;;;4939084;29;20277;-89
2023/03/12 16:10:26;;;;;;;;;;;;;;;;;;4954497;29;19922;-89
2023/03/12 16:12:52;;;;;;;;;;;;;;;;;;4938026;29;19929;-89
2023/03/12 16:15:18;;;;;;;;;;;;;;;;;;4939339;29;20296;-89
2023/03/12 16:17:44;;;;;;;;;;;;;;;;;;4950846;29;19930;-89
2023/03/12 16:20:10;;;;;;;;;;;;;;;;;;4954462;29;19926;-89
2023/03/12 16:22:36;;;;;;;;;;;;;;;;;;4939104;29;20296;-88
2023/03/12 16:25:02;;;;;;;;;;;;;;;;;;4938522;29;19934;-89
2023/03/12 16:27:28;;;;;;;;;;;;;;;;;;4931308;29;19930;-89
2023/03/12 16:30:00;;;;;;;;;;;;;;;;;;4938143;29;20428;-89
2023/03/12 16:32:26;;;;;;;;;;;;;;;;;;4938115;29;19929;-89
2023/03/12 16:34:51;;;;;;;;;;;;;;;;;;4938134;29;19926;-88
2023/03/12 16:37:17;;;;;;;;;;;;;;;;;;4954344;29;20410;-88
2023/03/12 16:39:45;;;;;;;;;;;;;;;;;;4937896;29;20392;-88
2023/03/12 16:42:11;;;;;;;;;;;;;;;;;;4927186;29;19934;-88
2023/03/12 16:44:37;;;;;;;;;;;;;;;;;;4936891;29;19923;-89
2023/03/12 16:47:03;;;;;;;;;;;;;;;;;;4938445;29;20052;-89
2023/03/12 16:49:29;;;;;;;;;;;;;;;;;;4954035;29;19972;-90
2023/03/12 16:51:54;;;;;;;;;;;;;;;;;;4938917;29;19972;-89
2023/03/12 16:54:20;;;;;;;;;;;;;;;;;;4938746;29;19929;-90
2023/03/12 16:56:47;;;;;;;;;;;;;;;;;;4938745;29;20380;-90
2023/03/12 16:59:13;;;;;;;;;;;;;;;;;;4938343;29;19929;-90
2023/03/12 17:01:38;;;;;;;;;;;;;;;;;;4937921;29;19926;-89
2023/03/12 17:04:04;;;;;;;;;;;;;;;;;;4928296;29;19923;-89
2023/03/12 17:06:39;;;;;;;;;;;;;;;;;;4929483;29;19923;-89
2023/03/12 17:09:07;;;;;;;;;;;;;;;;;;4938315;29;19968;-90
2023/03/12 17:11:33;;;;;;;;;;;;;;;;;;4938743;29;19977;-90
2023/03/12 17:13:59;;;;;;;;;;;;;;;;;;4938563;29;20376;-90
2023/03/12 17:16:24;;;;;;;;;;;;;;;;;;4954313;28;19923;-89
2023/03/12 17:18:50;;;;;;;;;;;;;;;;;;4938389;29;20006;-90
2023/03/12 17:21:16;;;;;;;;;;;;;;;;;;4938047;29;19941;-89
2023/03/12 17:23:42;;;;;;;;;;;;;;;;;;4938005;29;19957;-90
2023/03/12 17:26:08;;;;;;;;;;;;;;;;;;4954019;29;19995;-90
2023/03/12 17:28:34;;;;;;;;;;;;;;;;;;4935474;29;20311;-89
2023/03/12 17:31:00;;;;;;;;;;;;;;;;;;4937228;29;19923;-90